createdAt,value
2023-05-05T00:01:19.468Z,14.36
2023-05-05T00:03:49.330Z,14.34
2023-05-05T00:06:18.054Z,14.28
2023-05-05T00:08:47.064Z,14.24
2023-05-05T00:11:15.406Z,14.36
2023-05-05T00:13:43.728Z,14.28
2023-05-05T00:16:12.349Z,14.24
2023-05-05T00:18:40.878Z,14.19
2023-05-05T00:21:10.740Z,14.20
2023-05-05T00:23:59.240Z,14.39
2023-05-05T00:26:27.761Z,14.38
2023-05-05T00:28:56.087Z,14.33
2023-05-05T00:31:24.594Z,14.34
2023-05-05T00:33:53.060Z,14.38
2023-05-05T00:36:22.847Z,14.36
2023-05-05T00:38:51.315Z,14.29
2023-05-05T00:41:20.366Z,14.27
2023-05-05T00:43:49.045Z,14.23
2023-05-05T00:46:23.477Z,14.27
2023-05-05T00:48:52.388Z,14.28
2023-05-05T00:51:21.597Z,14.23
2023-05-05T00:53:51.623Z,14.26
2023-05-05T00:56:21.969Z,14.23
2023-05-05T00:58:50.768Z,14.19
2023-05-05T01:01:19.724Z,14.20
2023-05-05T01:03:48.226Z,14.27
2023-05-05T01:06:25.772Z,14.25
2023-05-05T01:09:09.100Z,14.25
2023-05-05T01:11:56.481Z,14.25
2023-05-05T01:14:29.639Z,14.45
2023-05-05T01:17:00.577Z,14.42
2023-05-05T01:19:39.376Z,14.29
2023-05-05T01:22:15.007Z,14.20
2023-05-05T01:25:01.396Z,14.13
2023-05-05T01:27:46.818Z,14.09
2023-05-05T01:30:36.115Z,14.06
2023-05-05T01:33:07.680Z,14.02
2023-05-05T01:35:38.925Z,14.04
2023-05-05T01:38:09.127Z,14.11
2023-05-05T01:40:40.185Z,14.18
2023-05-05T01:43:09.950Z,14.18
2023-05-05T01:45:39.858Z,14.20
2023-05-05T01:48:11.796Z,14.21
2023-05-05T01:50:41.774Z,14.19
2023-05-05T01:53:11.504Z,14.17
2023-05-05T01:55:40.780Z,14.19
2023-05-05T01:58:10.277Z,14.19
2023-05-05T02:00:39.109Z,14.21
2023-05-05T02:03:10.129Z,14.22
2023-05-05T02:05:40.658Z,14.27
2023-05-05T02:08:09.980Z,14.33
2023-05-05T02:10:40.826Z,14.36
2023-05-05T02:13:12.375Z,14.42
2023-05-05T02:15:41.644Z,14.46
2023-05-05T02:18:12.001Z,14.53
2023-05-05T02:20:41.236Z,14.61
2023-05-05T02:23:09.869Z,14.68
2023-05-05T02:25:40.223Z,14.81
2023-05-05T02:28:12.074Z,14.91
2023-05-05T02:30:41.922Z,15.07
2023-05-05T02:33:12.751Z,15.40
2023-05-05T02:35:42.085Z,15.40
2023-05-05T02:38:13.674Z,15.25
2023-05-05T02:40:43.197Z,15.12
2023-05-05T02:43:12.366Z,15.05
2023-05-05T02:45:41.249Z,15.10
2023-05-05T02:48:12.930Z,15.10
2023-05-05T02:50:41.513Z,15.05
2023-05-05T02:53:10.021Z,15.07
2023-05-05T02:55:42.331Z,15.04
2023-05-05T02:58:21.733Z,15.04
2023-05-05T03:00:54.510Z,15.03
2023-05-05T03:03:27.062Z,15.01
2023-05-05T03:06:01.930Z,14.91
2023-05-05T03:08:34.035Z,14.93
2023-05-05T03:11:07.604Z,14.99
2023-05-05T03:13:37.705Z,14.99
2023-05-05T03:16:07.189Z,15.13
2023-05-05T03:18:39.011Z,15.22
2023-05-05T03:21:09.171Z,15.31
2023-05-05T03:23:37.692Z,15.45
2023-05-05T03:26:06.341Z,15.47
2023-05-05T03:28:34.633Z,15.58
2023-05-05T03:31:17.440Z,15.58
2023-05-05T03:33:47.452Z,15.66
2023-05-05T03:36:16.056Z,15.54
2023-05-05T03:38:45.772Z,15.52
2023-05-05T03:41:14.074Z,15.48
2023-05-05T03:43:42.372Z,15.43
2023-05-05T03:46:11.396Z,15.36
2023-05-05T03:48:40.106Z,15.28
2023-05-05T03:51:10.092Z,15.15
2023-05-05T03:53:38.557Z,15.08
2023-05-05T03:56:07.255Z,14.99
2023-05-05T03:58:36.070Z,14.94
2023-05-05T04:01:06.419Z,14.95
2023-05-05T04:03:35.102Z,14.82
2023-05-05T04:06:03.605Z,14.72
2023-05-05T04:08:33.546Z,14.57
2023-05-05T04:11:03.499Z,14.49
2023-05-05T04:13:31.959Z,14.47
2023-05-05T04:16:00.736Z,14.46
2023-05-05T04:18:29.153Z,14.52
2023-05-05T04:20:57.715Z,14.48
2023-05-05T04:23:26.403Z,14.45
2023-05-05T04:25:56.967Z,14.39
2023-05-05T04:28:26.045Z,14.34
2023-05-05T04:30:54.534Z,14.36
2023-05-05T04:33:23.083Z,14.33
2023-05-05T04:35:51.862Z,14.37
2023-05-05T04:38:21.278Z,14.39
2023-05-05T04:40:49.931Z,14.38
2023-05-05T04:43:20.802Z,14.38
2023-05-05T04:45:59.159Z,14.37
2023-05-05T04:48:30.289Z,14.42
2023-05-05T04:51:00.167Z,14.45
2023-05-05T04:53:32.642Z,14.50
2023-05-05T04:56:03.061Z,14.61
2023-05-05T04:58:34.405Z,14.64
2023-05-05T05:01:03.640Z,14.68
2023-05-05T05:03:36.650Z,14.75
2023-05-05T05:06:07.625Z,14.85
2023-05-05T05:08:50.991Z,14.92
2023-05-05T05:11:19.793Z,15.02
2023-05-05T05:13:50.356Z,15.08
2023-05-05T05:16:19.080Z,15.10
2023-05-05T05:18:47.942Z,15.14
2023-05-05T05:21:18.569Z,15.18
2023-05-05T05:23:48.803Z,15.31
2023-05-05T05:26:20.626Z,15.52
2023-05-05T05:28:50.378Z,15.63
2023-05-05T05:31:19.037Z,15.81
2023-05-05T05:33:47.451Z,15.96
2023-05-05T05:36:25.867Z,16.09
2023-05-05T05:39:05.549Z,16.22
2023-05-05T05:41:37.290Z,16.26
2023-05-05T05:44:08.604Z,16.29
2023-05-05T05:46:37.111Z,16.33
2023-05-05T05:49:05.822Z,16.36
2023-05-05T05:51:34.431Z,16.43
2023-05-05T05:54:03.014Z,16.42
2023-05-05T05:56:31.623Z,16.39
2023-05-05T05:59:01.322Z,16.46
2023-05-05T06:01:31.090Z,16.55
2023-05-05T06:03:59.629Z,16.68
2023-05-05T06:06:28.104Z,16.76
2023-05-05T06:08:56.799Z,16.89
2023-05-05T06:11:25.428Z,17.06
2023-05-05T06:13:54.125Z,17.12
2023-05-05T06:16:22.553Z,17.24
2023-05-05T06:18:52.824Z,17.29
2023-05-05T06:21:21.366Z,17.40
2023-05-05T06:23:49.708Z,17.51
2023-05-05T06:26:18.121Z,17.70
2023-05-05T06:28:46.554Z,17.67
2023-05-05T06:31:15.085Z,17.73
2023-05-05T06:33:43.556Z,17.92
2023-05-05T06:36:13.434Z,17.99
2023-05-05T06:38:41.904Z,17.97
2023-05-05T06:41:10.227Z,17.97
2023-05-05T06:43:38.605Z,17.99
2023-05-05T06:46:07.013Z,18.17
2023-05-05T06:48:35.923Z,18.41
2023-05-05T06:51:04.541Z,18.71
2023-05-05T06:53:35.021Z,18.95
2023-05-05T06:56:03.510Z,19.07
2023-05-05T06:58:31.906Z,19.08
2023-05-05T07:01:00.492Z,19.20
2023-05-05T07:03:29.288Z,19.29
2023-05-05T07:05:57.967Z,19.58
2023-05-05T07:08:26.551Z,19.87
2023-05-05T07:10:56.414Z,20.01
2023-05-05T07:13:24.852Z,20.19
2023-05-05T07:15:53.564Z,20.58
2023-05-05T07:18:22.049Z,20.71
2023-05-05T07:20:50.631Z,20.78
2023-05-05T07:23:19.084Z,20.85
2023-05-05T07:25:47.538Z,21.12
2023-05-05T07:28:17.605Z,21.11
2023-05-05T07:30:46.014Z,21.12
2023-05-05T07:33:14.612Z,21.10
2023-05-05T07:35:43.007Z,21.33
2023-05-05T07:38:11.671Z,21.67
2023-05-05T07:40:40.050Z,21.09
2023-05-05T07:43:10.932Z,21.22
2023-05-05T07:45:40.624Z,21.48
2023-05-05T07:48:09.413Z,22.48
2023-05-05T07:50:38.165Z,23.18
2023-05-05T07:53:14.653Z,23.67
2023-05-05T07:55:43.638Z,24.08
2023-05-05T07:58:12.048Z,24.54
2023-05-05T08:00:43.701Z,25.29
2023-05-05T08:03:12.435Z,25.90
2023-05-05T08:05:41.560Z,26.13
2023-05-05T08:08:09.929Z,26.76
2023-05-05T08:10:38.262Z,27.33
2023-05-05T08:13:06.735Z,27.08
2023-05-05T08:15:35.367Z,27.12
2023-05-05T08:18:05.077Z,27.69
2023-05-05T08:20:33.652Z,27.73
2023-05-05T08:23:01.983Z,28.14
2023-05-05T08:25:30.759Z,28.21
2023-05-05T08:27:59.075Z,29.07
2023-05-05T08:30:27.438Z,29.55
2023-05-05T08:32:56.453Z,29.92
2023-05-05T08:35:26.280Z,30.19
2023-05-05T08:37:56.076Z,31.23
2023-05-05T08:40:30.244Z,31.61
2023-05-05T08:42:58.835Z,31.61
2023-05-05T08:45:27.470Z,32.29
2023-05-05T08:47:57.124Z,31.83
2023-05-05T08:50:29.004Z,30.33
2023-05-05T08:53:01.734Z,31.02
2023-05-05T08:55:35.042Z,30.55
2023-05-05T08:58:04.222Z,31.04
2023-05-05T09:00:32.848Z,31.54
2023-05-05T09:03:02.285Z,31.18
2023-05-05T09:05:31.997Z,31.51
2023-05-05T09:08:01.768Z,31.83
2023-05-05T09:10:30.408Z,32.50
2023-05-05T09:12:58.929Z,32.66
2023-05-05T09:15:28.352Z,33.50
2023-05-05T09:17:57.672Z,34.49
2023-05-05T09:20:31.375Z,35.08
2023-05-05T09:23:07.864Z,35.84
2023-05-05T09:25:36.385Z,36.68
2023-05-05T09:28:11.809Z,37.27
2023-05-05T09:30:41.194Z,37.98
2023-05-05T09:33:29.893Z,35.63
2023-05-05T09:35:58.658Z,32.92
2023-05-05T09:38:27.768Z,33.66
2023-05-05T09:40:57.656Z,33.91
2023-05-05T09:43:26.799Z,34.39
2023-05-05T09:46:06.238Z,35.51
2023-05-05T09:48:37.367Z,36.24
2023-05-05T09:51:06.123Z,35.25
2023-05-05T09:53:39.997Z,37.50
2023-05-05T09:56:10.230Z,38.74
2023-05-05T09:58:38.812Z,38.00
2023-05-05T10:01:07.266Z,37.54
2023-05-05T10:03:50.662Z,36.97
2023-05-05T10:06:19.350Z,34.42
2023-05-05T10:09:01.580Z,33.37
2023-05-05T10:11:30.376Z,33.55
2023-05-05T10:13:59.221Z,32.73
2023-05-05T10:16:29.987Z,31.41
2023-05-05T10:19:02.601Z,30.12
2023-05-05T10:21:34.463Z,27.84
2023-05-05T10:24:08.005Z,27.38
2023-05-05T10:26:40.075Z,29.37
2023-05-05T10:29:12.897Z,31.56
2023-05-05T10:31:43.211Z,31.46
2023-05-05T10:34:19.084Z,30.28
2023-05-05T10:36:48.042Z,28.57
2023-05-05T10:39:17.343Z,29.33
2023-05-05T10:41:47.246Z,27.89
2023-05-05T10:44:16.392Z,26.63
2023-05-05T10:46:45.580Z,26.47
2023-05-05T10:49:21.128Z,28.46
2023-05-05T10:51:55.577Z,32.34
2023-05-05T10:54:29.460Z,35.05
2023-05-05T10:56:59.111Z,36.66
2023-05-05T10:59:40.580Z,36.01
2023-05-05T11:02:26.029Z,33.99
2023-05-05T11:05:17.960Z,33.71
2023-05-05T11:07:47.672Z,34.56
2023-05-05T11:10:17.169Z,35.37
2023-05-05T11:13:06.611Z,33.66
2023-05-05T11:15:44.717Z,31.17
2023-05-05T11:18:28.376Z,29.90
2023-05-05T11:21:15.605Z,29.90
2023-05-05T11:23:45.459Z,30.14
2023-05-05T11:26:14.572Z,29.05
2023-05-05T11:28:57.708Z,30.21
2023-05-05T11:31:26.682Z,31.50
2023-05-05T11:33:55.213Z,32.63
2023-05-05T11:36:39.381Z,32.94
2023-05-05T11:39:20.355Z,31.72
2023-05-05T11:42:08.009Z,31.37
2023-05-05T11:45:20.866Z,30.55
2023-05-05T11:47:49.886Z,29.60
2023-05-05T11:50:19.562Z,28.96
2023-05-05T11:52:49.754Z,28.56
2023-05-05T11:55:24.205Z,27.74
2023-05-05T11:57:53.169Z,27.23
2023-05-05T12:00:32.323Z,26.58
2023-05-05T12:03:01.050Z,25.93
2023-05-05T12:05:29.803Z,25.08
2023-05-05T12:07:59.847Z,24.62
2023-05-05T12:10:28.918Z,24.19
2023-05-05T12:12:58.184Z,23.71
2023-05-05T12:15:31.413Z,23.27
2023-05-05T12:18:02.435Z,23.02
2023-05-05T12:20:32.852Z,22.23
2023-05-05T12:23:03.960Z,21.88
2023-05-05T12:25:42.252Z,21.64
2023-05-05T12:28:10.929Z,21.28
2023-05-05T12:30:39.582Z,20.78
2023-05-05T12:33:08.821Z,20.24
2023-05-05T12:35:37.892Z,19.62
2023-05-05T12:38:08.141Z,18.36
2023-05-05T12:40:47.196Z,17.17
2023-05-05T12:43:26.696Z,16.58
2023-05-05T12:46:02.702Z,16.23
2023-05-05T12:48:31.743Z,16.03
2023-05-05T12:51:17.429Z,15.77
2023-05-05T12:53:48.824Z,15.58
2023-05-05T12:56:30.875Z,15.48
2023-05-05T12:58:59.780Z,15.57
2023-05-05T13:01:28.443Z,15.68
2023-05-05T13:04:06.945Z,15.76
2023-05-05T13:06:35.941Z,15.90
2023-05-05T13:09:06.104Z,15.97
2023-05-05T13:11:38.561Z,15.94
2023-05-05T13:14:08.709Z,15.94
2023-05-05T13:16:37.693Z,16.05
2023-05-05T13:19:06.369Z,16.40
2023-05-05T13:21:35.615Z,16.55
2023-05-05T13:24:21.426Z,16.80
2023-05-05T13:26:56.038Z,16.94
2023-05-05T13:29:29.502Z,16.79
2023-05-05T13:32:00.464Z,16.91
2023-05-05T13:34:29.019Z,17.22
2023-05-05T13:36:57.631Z,17.45
2023-05-05T13:39:26.520Z,17.76
2023-05-05T13:41:56.901Z,18.02
2023-05-05T13:44:25.516Z,17.79
2023-05-05T13:46:54.636Z,17.99
2023-05-05T13:49:24.339Z,18.33
2023-05-05T13:51:52.900Z,18.28
2023-05-05T13:54:21.712Z,18.17
2023-05-05T13:56:50.345Z,18.32
2023-05-05T13:59:20.461Z,18.45
2023-05-05T14:01:49.903Z,18.30
2023-05-05T14:04:18.693Z,18.41
2023-05-05T14:06:47.254Z,18.63
2023-05-05T14:09:15.897Z,19.02
2023-05-05T14:11:44.999Z,19.42
2023-05-05T14:14:13.379Z,19.42
2023-05-05T14:16:43.442Z,19.48
2023-05-05T14:19:12.285Z,19.50
2023-05-05T14:21:41.900Z,19.37
2023-05-05T14:24:10.415Z,19.41
2023-05-05T14:26:39.154Z,18.91
2023-05-05T14:29:08.005Z,18.88
2023-05-05T14:31:37.089Z,18.77
2023-05-05T14:34:07.131Z,18.40
2023-05-05T14:36:35.895Z,18.18
2023-05-05T14:39:04.741Z,18.11
2023-05-05T14:41:33.308Z,18.25
2023-05-05T14:44:01.819Z,18.54
2023-05-05T14:46:31.362Z,18.57
2023-05-05T14:49:00.283Z,18.35
2023-05-05T14:51:31.608Z,18.34
2023-05-05T14:54:00.784Z,18.24
2023-05-05T14:56:29.326Z,18.12
2023-05-05T14:58:57.844Z,17.91
2023-05-05T15:01:26.722Z,17.48
2023-05-05T15:03:55.762Z,17.07
2023-05-05T15:06:24.444Z,16.62
2023-05-05T15:08:54.422Z,16.07
2023-05-05T15:11:23.589Z,15.52
2023-05-05T15:13:52.300Z,15.11
2023-05-05T15:16:21.645Z,14.99
2023-05-05T15:18:50.790Z,14.79
2023-05-05T15:21:20.072Z,14.73
2023-05-05T15:23:48.961Z,14.52
2023-05-05T15:26:19.216Z,14.44
2023-05-05T15:28:49.706Z,14.37
2023-05-05T15:31:19.102Z,14.22
2023-05-05T15:33:48.905Z,14.03
2023-05-05T15:36:22.419Z,13.87
2023-05-05T15:38:51.109Z,13.82
2023-05-05T15:41:21.173Z,13.87
2023-05-05T15:43:49.792Z,13.83
2023-05-05T15:46:18.360Z,13.85
2023-05-05T15:48:47.283Z,13.92
2023-05-05T15:51:16.320Z,13.93
2023-05-05T15:53:44.957Z,14.04
2023-05-05T15:56:29.398Z,14.18
2023-05-05T15:58:59.085Z,14.39
2023-05-05T16:01:27.703Z,14.43
2023-05-05T16:03:57.938Z,14.60
2023-05-05T16:06:27.450Z,14.55
2023-05-05T16:08:57.971Z,14.42
2023-05-05T16:11:27.046Z,14.34
2023-05-05T16:13:57.590Z,14.27
2023-05-05T16:16:26.213Z,14.14
2023-05-05T16:18:54.757Z,14.10
2023-05-05T16:21:23.642Z,14.02
2023-05-05T16:23:52.596Z,14.13
2023-05-05T16:26:21.396Z,14.08
2023-05-05T16:28:50.299Z,14.03
2023-05-05T16:31:20.412Z,13.98
2023-05-05T16:33:48.909Z,13.99
2023-05-05T16:36:17.410Z,13.84
2023-05-05T16:38:46.036Z,13.78
2023-05-05T16:41:14.813Z,13.71
2023-05-05T16:43:43.758Z,13.61
2023-05-05T16:46:12.390Z,13.60
2023-05-05T16:48:43.176Z,13.74
2023-05-05T16:51:12.021Z,13.99
2023-05-05T16:53:40.807Z,14.41
2023-05-05T16:56:12.753Z,15.18
2023-05-05T16:58:41.882Z,15.55
2023-05-05T17:01:11.091Z,15.65
2023-05-05T17:03:40.128Z,15.59
2023-05-05T17:06:13.194Z,15.29
2023-05-05T17:08:42.050Z,15.00
2023-05-05T17:11:11.965Z,14.79
2023-05-05T17:13:40.800Z,14.79
2023-05-05T17:16:09.331Z,14.59
2023-05-05T17:18:38.362Z,14.67
2023-05-05T17:21:07.532Z,14.72
2023-05-05T17:23:39.258Z,15.00
2023-05-05T17:26:08.854Z,14.81
2023-05-05T17:28:38.321Z,14.58
2023-05-05T17:31:08.585Z,14.20
2023-05-05T17:33:37.839Z,13.96
2023-05-05T17:36:07.101Z,13.82
2023-05-05T17:38:37.292Z,13.80
2023-05-05T17:41:06.440Z,13.69
2023-05-05T17:43:35.188Z,13.62
2023-05-05T17:46:03.721Z,13.64
2023-05-05T17:48:32.257Z,13.66
2023-05-05T17:51:15.903Z,13.56
2023-05-05T17:53:46.444Z,13.53
2023-05-05T17:56:15.098Z,13.60
2023-05-05T17:58:43.567Z,13.56
2023-05-05T18:01:21.367Z,13.56
2023-05-05T18:04:04.769Z,13.61
2023-05-05T18:06:34.133Z,13.47
2023-05-05T18:09:04.633Z,13.36
2023-05-05T18:11:33.968Z,13.24
2023-05-05T18:14:02.623Z,13.21
2023-05-05T18:16:32.360Z,13.15
2023-05-05T18:19:01.044Z,13.21
2023-05-05T18:21:29.843Z,13.20
2023-05-05T18:24:07.585Z,13.18
2023-05-05T18:26:51.179Z,13.15
2023-05-05T18:29:21.591Z,13.06
2023-05-05T18:31:52.009Z,13.05
2023-05-05T18:34:20.712Z,12.99
2023-05-05T18:36:49.584Z,13.01
2023-05-05T18:39:18.617Z,13.02
2023-05-05T18:41:47.344Z,13.08
2023-05-05T18:44:17.364Z,13.03
2023-05-05T18:46:46.978Z,12.99
2023-05-05T18:49:16.352Z,12.91
2023-05-05T18:52:14.583Z,12.88
2023-05-05T18:54:43.717Z,12.89
2023-05-05T18:57:32.210Z,12.95
2023-05-05T19:00:02.246Z,12.94
2023-05-05T19:02:31.059Z,12.99
2023-05-05T19:04:59.839Z,12.96
2023-05-05T19:07:35.656Z,12.99
2023-05-05T19:10:05.341Z,13.13
2023-05-05T19:12:34.004Z,13.08
2023-05-05T19:15:04.094Z,13.03
2023-05-05T19:17:33.156Z,12.97
2023-05-05T19:20:02.283Z,12.85
2023-05-05T19:22:30.934Z,12.85
2023-05-05T19:24:59.759Z,12.78
2023-05-05T19:27:28.598Z,12.64
2023-05-05T19:29:57.599Z,12.59
2023-05-05T19:32:32.335Z,12.51
2023-05-05T19:35:03.347Z,12.29
2023-05-05T19:37:32.467Z,12.26
2023-05-05T19:40:01.129Z,12.15
2023-05-05T19:42:29.828Z,12.07
2023-05-05T19:44:58.924Z,12.04
2023-05-05T19:47:29.682Z,12.10
2023-05-05T19:49:59.355Z,12.05
2023-05-05T19:52:28.041Z,11.92
2023-05-05T19:54:57.170Z,11.81
2023-05-05T19:57:26.376Z,11.66
2023-05-05T19:59:54.820Z,11.55
2023-05-05T20:02:26.650Z,11.54
2023-05-05T20:04:58.145Z,11.52
2023-05-05T20:07:26.955Z,11.51
2023-05-05T20:09:55.963Z,11.47
2023-05-05T20:12:24.943Z,11.44
2023-05-05T20:14:53.709Z,11.45
2023-05-05T20:17:22.566Z,11.37
2023-05-05T20:19:51.382Z,11.32
2023-05-05T20:22:21.362Z,11.33
2023-05-05T20:24:50.060Z,11.27
2023-05-05T20:27:18.918Z,11.33
2023-05-05T20:29:48.271Z,11.22
2023-05-05T20:32:20.621Z,11.21
2023-05-05T20:34:50.280Z,11.28
2023-05-05T20:37:20.992Z,11.30
2023-05-05T20:39:52.277Z,11.21
2023-05-05T20:42:21.480Z,11.12
2023-05-05T20:44:51.483Z,11.04
2023-05-05T20:47:20.793Z,10.93
2023-05-05T20:49:49.406Z,10.90
2023-05-05T20:52:18.107Z,10.81
2023-05-05T20:54:47.070Z,10.76
2023-05-05T20:57:17.752Z,10.80
2023-05-05T20:59:46.899Z,10.79
2023-05-05T21:02:16.427Z,10.78
2023-05-05T21:04:45.943Z,10.74
2023-05-05T21:07:14.926Z,10.67
2023-05-05T21:09:46.882Z,10.63
2023-05-05T21:12:17.365Z,10.60
2023-05-05T21:14:47.184Z,10.58
2023-05-05T21:17:21.777Z,10.56
2023-05-05T21:20:05.010Z,10.52
2023-05-05T21:22:33.705Z,10.48
2023-05-05T21:25:12.563Z,10.46
2023-05-05T21:27:42.589Z,10.37
2023-05-05T21:30:12.640Z,10.32
2023-05-05T21:32:41.841Z,10.33
2023-05-05T21:35:11.030Z,10.30
2023-05-05T21:37:40.132Z,10.34
2023-05-05T21:40:11.318Z,10.22
2023-05-05T21:42:40.387Z,10.17
2023-05-05T21:45:12.244Z,10.16
2023-05-05T21:47:41.098Z,10.30
2023-05-05T21:50:10.964Z,10.29
2023-05-05T21:52:39.934Z,10.26
2023-05-05T21:55:11.149Z,10.20
2023-05-05T21:57:40.070Z,10.19
2023-05-05T22:00:09.578Z,10.21
2023-05-05T22:02:39.982Z,10.22
2023-05-05T22:05:09.323Z,10.20
2023-05-05T22:07:38.198Z,10.15
2023-05-05T22:10:08.058Z,10.15
2023-05-05T22:12:37.079Z,10.18
2023-05-05T22:15:06.732Z,10.12
2023-05-05T22:17:36.491Z,10.13
2023-05-05T22:20:08.968Z,10.18
2023-05-05T22:22:38.173Z,10.17
2023-05-05T22:25:07.852Z,10.13
2023-05-05T22:27:37.273Z,10.08
2023-05-05T22:30:08.242Z,10.09
2023-05-05T22:32:36.702Z,10.08
2023-05-05T22:35:07.868Z,10.05
2023-05-05T22:37:37.443Z,10.06
2023-05-05T22:40:09.722Z,10.05
2023-05-05T22:42:38.942Z,10.00
2023-05-05T22:45:08.904Z,9.97
2023-05-05T22:47:38.865Z,9.96
2023-05-05T22:50:10.369Z,9.99
2023-05-05T22:52:39.705Z,9.98
2023-05-05T22:55:09.212Z,9.97
2023-05-05T22:57:38.617Z,9.95
2023-05-05T23:00:09.114Z,10.02
2023-05-05T23:02:39.665Z,9.98
2023-05-05T23:05:11.211Z,10.05
2023-05-05T23:07:40.780Z,10.01
2023-05-05T23:10:11.402Z,9.97
2023-05-05T23:12:41.089Z,9.93
2023-05-05T23:15:12.700Z,9.94
2023-05-05T23:17:42.185Z,9.92
2023-05-05T23:20:14.104Z,9.92
2023-05-05T23:22:43.068Z,9.91
2023-05-05T23:25:12.676Z,9.93
2023-05-05T23:27:42.231Z,9.97
2023-05-05T23:30:11.669Z,9.92
2023-05-05T23:32:40.595Z,9.84
2023-05-05T23:35:10.578Z,9.82
2023-05-05T23:37:40.980Z,9.84
2023-05-05T23:40:10.649Z,9.93
2023-05-05T23:42:39.364Z,10.03
2023-05-05T23:45:09.323Z,10.12
2023-05-05T23:47:38.296Z,10.20
2023-05-05T23:50:07.779Z,10.19
2023-05-05T23:52:36.742Z,10.22
2023-05-05T23:55:07.988Z,10.26
2023-05-05T23:57:37.919Z,10.26
